Eunice, Mississippi
Current Conditions -  °F | °C
As of 2:53 PM on Tuesday 25 Nov 2014 (Local Time) from KMCB Reporting Station
Overcast Overcast  
Wind Chill: 52°   Ceiling: 9000
Heat Index: 52°   Visibility: 10mi
Dew Point: 25°   Wind: 10mph
Humidity: 35%   Direction: 350°N
Pressure: 30.15"   Gusts: NA
Location:  31.1819°N, 90.9008°W
Report Text: KMCB 252053Z AUTO 35009KT 10SM BKN090 OVC110 11/M04 A3015 RMK AO2 SLP207 T01111039 55013
Loading
Personal Weather Stations






























Interactive Weather Map New forecast layout! Learn more

10-Day Weather Forecast

Advertisements
Track Severe Weather on mobile